Track Паламарчук Федя

Time Latitude Longitude Accuracy (66% radius in meters) Altitude (meters) Speed (km/hour) Bearing (degrees) Battery (%) GPS flag
11:31:35 57.204599 60.120735 4.9000000953674 333.141479492 0.28772300481796 49.907978057861 45 1 delete
11:31:19 57.204530 60.120622 4.6999998092651 333.259338379 1.6231240034103 50.005107879639 45 1 delete
11:31:15 57.204478 60.120447 4.6999998092651 332.176452637 1.7683190107346 43.880973815918 45 1 delete
11:31:12 57.204446 60.120278 4.6999998092651 331.82522583 1.568549990654 85.038421630859 45 1 delete
11:31:09 57.204436 60.120083 4.6999998092651 332.111968994 1.7333159446716 77.883880615234 45 1 delete
11:31:05 57.204410 60.119903 4.6999998092651 332.149749756 1.3911139965057 74.584663391113 45 1 delete
11:31:01 57.204365 60.119759 4.6999998092651 333.038421631 1.6641360521317 65.492454528809 45 1 delete
11:30:56 57.204305 60.119604 4.6999998092651 332.127502441 1.4428449869156 58.58366394043 45 1 delete
11:30:52 57.204248 60.119447 4.6999998092651 331.511566162 1.5463500022888 52.235652923584 45 1 delete
11:30:48 57.204190 60.119301 4.6999998092651 329.774932861 1.5416079759598 54.005233764648 45 1 delete
11:30:44 57.204129 60.119165 4.6999998092651 328.38482666 1.4005089998245 70.583831787109 45 1 delete
11:30:40 57.204065 60.119044 4.6999998092651 327.981628418 1.5140939950943 45.420883178711 45 1 delete
11:30:36 57.203993 60.118926 4.6999998092651 328.091522217 1.4485650062561 37.430858612061 45 1 delete
11:30:28 57.203924 60.118813 4.6999998092651 328.42565918 1.4397469758987 60.579879760742 45 1 delete
11:30:22 57.203875 60.118666 4.6999998092651 328.562957764 1.6459499597549 75.762481689453 45 1 delete
11:30:13 57.203875 60.118500 4.2525029182434 327.359039307 0.94214999675751 119.57454681396 45 1 delete
11:30:02 57.203938 60.118376 4.9484810829163 328.789886475 1.674978017807 116.53136444092 45 1 delete
11:29:53 57.203981 60.118225 4.1699538230896 326.95010376 1.3763600587845 127.26063537598 45 1 delete
11:29:47 57.204052 60.118089 4.1920509338379 324.948791504 1.6189119815826 133.77868652344 45 1 delete
11:29:41 57.204132 60.117966 4.6999998092651 323.701934814 1.9701379537582 137.59213256836 45 1 delete
11:29:36 57.204202 60.117846 4.6999998092651 322.235717773 1.514897942543 143.28642272949 45 1 delete
11:29:30 57.204292 60.117756 4.6999998092651 321.392852783 1.3871209621429 157.60913085938 45 1 delete
11:29:25 57.204380 60.117660 5.1227779388428 320.92364502 1.5316920280457 127.73171234131 45 1 delete
11:29:21 57.204461 60.117566 6.0587038993835 320.045440674 1.3002610206604 142.64236450195 45 1 delete
11:29:17 57.204566 60.117510 5.0861492156982 318.978240967 1.3512690067291 163.08709716797 45 1 delete
11:29:14 57.204672 60.117491 4.6999998092651 319.246246338 1.5463449954987 164.49031066895 45 1 delete
11:29:10 57.204801 60.117508 4.6999998092651 320.294128418 1.4347239732742 177.36755371094 45 1 delete
11:29:06 57.204912 60.117539 4.6999998092651 321.431213379 1.2728279829025 192.01690673828 45 1 delete
11:29:03 57.205003 60.117568 4.6999998092651 322.26473999 1.0434340238571 201.28466796875 45 1 delete
11:28:57 57.205107 60.117580 4.6999998092651 325.010314941 1.114431977272 161.04852294922 45 1 delete
11:28:48 57.205190 60.117505 4.6999998092651 325.390625 1.5955879688263 162.8603515625 45 1 delete
11:28:42 57.205245 60.117354 5.2898688316345 324.701446533 1.8923280239105 118.60626220703 45 1 delete
11:28:36 57.205329 60.117247 5.3845429420471 324.333862305 1.2447710037231 166.30838012695 45 1 delete
11:28:30 57.205418 60.117158 6.3545942306519 324.835327148 1.5700839757919 157.32795715332 45 1 delete
11:28:24 57.205503 60.117092 6.5579771995544 324.276428223 1.581475019455 165.62634277344 45 1 delete
11:28:19 57.205601 60.117070 7.3626627922058 323.622131348 1.9312590360641 183.01245117188 45 1 delete
11:28:16 57.205719 60.117053 5.8092007637024 322.835876465 2.0834670066833 173.47421264648 45 1 delete
11:28:14 57.205832 60.117047 5.5115919113159 322.519744873 2.3543651103973 171.37066650391 45 1 delete
11:28:12 57.205976 60.117046 5.1556301116943 322.121643066 2.272579908371 178.14183044434 45 1 delete
11:28:10 57.205766 60.117019 6.5516262054443 322.002272108 4.2016401290894 179.6886138916 45 1 delete
11:28:08 57.206203 60.117081 6.128454208374 321.847137451 1.6545579433441 179.22122192383 45 1 delete
11:27:59 57.206298 60.117103 4.6999998092651 322.62552779 3.8858950138092 200.07008361816 45 1 delete
11:27:57 57.206394 60.117154 4.6999998092651 323.261376725 4.5518732070923 196.11924743652 45 1 delete
11:27:54 57.206643 60.117280 4.6999998092651 324.357818604 1.5368690490723 177.98297119141 45 1 delete
11:27:50 57.206757 60.117302 4.6999998092651 325.334228516 1.4697740077972 181.44137573242 45 1 delete
11:27:46 57.206862 60.117327 5.0044269561768 327.011779785 1.4125729799271 191.35720825195 45 1 delete
11:27:42 57.206960 60.117374 4.6999998092651 327.921356201 1.5461440086365 191.85391235352 45 1 delete
11:27:38 57.207056 60.117421 5.6103529930115 327.855773926 1.1439850330353 196.12365722656 45 1 delete
11:27:33 57.207157 60.117487 4.6999998092651 328.674499512 1.1581310033798 206.23931884766 45 1 delete
11:27:27 57.207263 60.117512 5.2965469360352 328.674621582 1.2561869621277 162.14601135254 45 1 delete